sensor_id;sensor_type;location;lat;lon;timestamp;temperature;humidity
6863;DHT22;3470;48.738;9.616;2022-12-18T13:54:56;-0.90;99.10
6863;DHT22;3470;48.738;9.616;2022-12-18T13:57:34;-0.90;99.60
6863;DHT22;3470;48.738;9.616;2022-12-18T14:02:45;-0.80;98.90
6863;DHT22;3470;48.738;9.616;2022-12-18T14:05:28;-0.90;99.00
6863;DHT22;3470;48.738;9.616;2022-12-18T14:08:16;-1.10;99.40
6863;DHT22;3470;48.738;9.616;2022-12-18T14:10:43;-1.30;99.80
6863;DHT22;3470;48.738;9.616;2022-12-18T14:13:11;-1.50;99.90
6863;DHT22;3470;48.738;9.616;2022-12-18T14:15:42;-1.50;99.90
6863;DHT22;3470;48.738;9.616;2022-12-18T14:20:46;-1.50;99.90
6863;DHT22;3470;48.738;9.616;2022-12-18T14:25:57;-1.60;99.90
6863;DHT22;3470;48.738;9.616;2022-12-18T14:28:23;-1.80;99.90
6863;DHT22;3470;48.738;9.616;2022-12-18T14:30:49;-2.00;99.90
6863;DHT22;3470;48.738;9.616;2022-12-18T14:33:24;-2.20;99.90
6863;DHT22;3470;48.738;9.616;2022-12-18T14:36:17;-2.40;99.90
6863;DHT22;3470;48.738;9.616;2022-12-18T14:38:42;-2.40;99.90
6863;DHT22;3470;48.738;9.616;2022-12-18T14:41:16;-2.60;99.90
6863;DHT22;3470;48.738;9.616;2022-12-18T14:43:43;-2.70;99.90
6863;DHT22;3470;48.738;9.616;2022-12-18T14:48:54;-3.00;99.90
6863;DHT22;3470;48.738;9.616;2022-12-18T14:51:29;-3.00;99.90
6863;DHT22;3470;48.738;9.616;2022-12-18T14:53:55;-3.10;99.90
6863;DHT22;3470;48.738;9.616;2022-12-18T14:57:05;-3.10;99.90
6863;DHT22;3470;48.738;9.616;2022-12-18T14:59:24;-3.20;99.90
6863;DHT22;3470;48.738;9.616;2022-12-18T15:04:39;-3.40;99.90
6863;DHT22;3470;48.738;9.616;2022-12-18T15:07:21;-3.50;99.90
6863;DHT22;3470;48.738;9.616;2022-12-18T15:12:46;-3.60;99.90
6863;DHT22;3470;48.738;9.616;2022-12-18T15:20:52;-3.80;99.90
6863;DHT22;3470;48.738;9.616;2022-12-18T15:26:00;-4.00;99.90
6863;DHT22;3470;48.738;9.616;2022-12-18T15:28:34;-4.00;99.90
6863;DHT22;3470;48.738;9.616;2022-12-18T15:33:34;-4.20;99.90
6863;DHT22;3470;48.738;9.616;2022-12-18T15:36:03;-4.20;99.90
6863;DHT22;3470;48.738;9.616;2022-12-18T15:38:29;-4.20;99.90
6863;DHT22;3470;48.738;9.616;2022-12-18T15:40:55;-4.20;99.90
6863;DHT22;3470;48.738;9.616;2022-12-18T15:43:22;-4.30;99.90
6863;DHT22;3470;48.738;9.616;2022-12-18T15:46:11;-4.30;99.90
6863;DHT22;3470;48.738;9.616;2022-12-18T15:48:42;-4.40;99.90
6863;DHT22;3470;48.738;9.616;2022-12-18T15:51:19;-4.40;99.90
6863;DHT22;3470;48.738;9.616;2022-12-18T15:53:47;-4.30;99.90
6863;DHT22;3470;48.738;9.616;2022-12-18T15:56:15;-4.30;99.90
6863;DHT22;3470;48.738;9.616;2022-12-18T15:59:00;-4.30;99.90
6863;DHT22;3470;48.738;9.616;2022-12-18T16:01:28;-4.30;99.90
6863;DHT22;3470;48.738;9.616;2022-12-18T16:03:54;-4.40;99.90
6863;DHT22;3470;48.738;9.616;2022-12-18T16:06:21;-4.40;99.90
6863;DHT22;3470;48.738;9.616;2022-12-18T16:08:46;-4.40;99.90
6863;DHT22;3470;48.738;9.616;2022-12-18T16:11:29;-4.40;99.90
6863;DHT22;3470;48.738;9.616;2022-12-18T16:16:32;-4.40;99.90
6863;DHT22;3470;48.738;9.616;2022-12-18T16:18:57;-4.40;99.90
6863;DHT22;3470;48.738;9.616;2022-12-18T16:21:23;-4.40;99.90
6863;DHT22;3470;48.738;9.616;2022-12-18T16:23:48;-4.50;99.90
6863;DHT22;3470;48.738;9.616;2022-12-18T16:26:14;-4.40;99.90
6863;DHT22;3470;48.738;9.616;2022-12-18T16:28:39;-4.40;99.90
6863;DHT22;3470;48.738;9.616;2022-12-18T16:31:05;-4.40;99.90
6863;DHT22;3470;48.738;9.616;2022-12-18T16:33:31;-4.50;99.90
6863;DHT22;3470;48.738;9.616;2022-12-18T16:35:56;-4.50;99.90
6863;DHT22;3470;48.738;9.616;2022-12-18T16:38:22;-4.50;99.90
6863;DHT22;3470;48.738;9.616;2022-12-18T16:40:47;-4.50;99.90
6863;DHT22;3470;48.738;9.616;2022-12-18T16:43:31;-4.60;99.90
6863;DHT22;3470;48.738;9.616;2022-12-18T16:45:58;-4.60;99.90
6863;DHT22;3470;48.738;9.616;2022-12-18T16:48:24;-4.60;99.90
6863;DHT22;3470;48.738;9.616;2022-12-18T16:50:49;-4.60;99.90
6863;DHT22;3470;48.738;9.616;2022-12-18T16:53:15;-4.60;99.90
6863;DHT22;3470;48.738;9.616;2022-12-18T16:55:41;-4.60;99.90
6863;DHT22;3470;48.738;9.616;2022-12-18T16:58:06;-4.60;99.90
6863;DHT22;3470;48.738;9.616;2022-12-18T17:00:32;-4.60;99.90
6863;DHT22;3470;48.738;9.616;2022-12-18T17:02:57;-4.60;99.90
6863;DHT22;3470;48.738;9.616;2022-12-18T17:05:23;-4.60;99.90
6863;DHT22;3470;48.738;9.616;2022-12-18T17:07:48;-4.50;99.90
6863;DHT22;3470;48.738;9.616;2022-12-18T17:10:14;-4.60;99.90
6863;DHT22;3470;48.738;9.616;2022-12-18T17:12:40;-4.60;99.90
6863;DHT22;3470;48.738;9.616;2022-12-18T17:15:06;-4.50;99.90
6863;DHT22;3470;48.738;9.616;2022-12-18T17:17:32;-4.50;99.90
6863;DHT22;3470;48.738;9.616;2022-12-18T17:19:57;-4.50;99.90
6863;DHT22;3470;48.738;9.616;2022-12-18T17:22:23;-4.50;99.90
6863;DHT22;3470;48.738;9.616;2022-12-18T17:24:48;-4.50;99.90
6863;DHT22;3470;48.738;9.616;2022-12-18T17:27:14;-4.50;99.90
6863;DHT22;3470;48.738;9.616;2022-12-18T17:29:40;-4.40;99.90
6863;DHT22;3470;48.738;9.616;2022-12-18T17:32:05;-4.40;99.90
6863;DHT22;3470;48.738;9.616;2022-12-18T17:34:31;-4.50;99.90
6863;DHT22;3470;48.738;9.616;2022-12-18T17:36:57;-4.50;99.90
6863;DHT22;3470;48.738;9.616;2022-12-18T17:39:22;-4.40;99.90
6863;DHT22;3470;48.738;9.616;2022-12-18T17:41:48;-4.40;99.90
6863;DHT22;3470;48.738;9.616;2022-12-18T17:44:14;-4.40;99.90
6863;DHT22;3470;48.738;9.616;2022-12-18T17:46:40;-4.40;99.90
6863;DHT22;3470;48.738;9.616;2022-12-18T17:49:06;-4.30;99.90
6863;DHT22;3470;48.738;9.616;2022-12-18T17:51:32;-4.40;99.90
6863;DHT22;3470;48.738;9.616;2022-12-18T17:53:58;-4.30;99.90
6863;DHT22;3470;48.738;9.616;2022-12-18T17:56:24;-4.20;99.90
6863;DHT22;3470;48.738;9.616;2022-12-18T17:58:50;-4.20;99.90
6863;DHT22;3470;48.738;9.616;2022-12-18T18:01:18;-4.20;99.90
6863;DHT22;3470;48.738;9.616;2022-12-18T18:03:44;-4.10;99.90
6863;DHT22;3470;48.738;9.616;2022-12-18T18:06:10;-4.10;99.90
6863;DHT22;3470;48.738;9.616;2022-12-18T18:08:36;-4.10;99.90
6863;DHT22;3470;48.738;9.616;2022-12-18T18:11:06;-4.10;99.90
6863;DHT22;3470;48.738;9.616;2022-12-18T18:13:51;-4.00;99.90
6863;DHT22;3470;48.738;9.616;2022-12-18T18:19:02;-4.00;99.90
6863;DHT22;3470;48.738;9.616;2022-12-18T18:21:29;-3.90;99.90
6863;DHT22;3470;48.738;9.616;2022-12-18T18:23:54;-3.90;99.90
6863;DHT22;3470;48.738;9.616;2022-12-18T18:26:23;-3.80;99.90
6863;DHT22;3470;48.738;9.616;2022-12-18T18:28:48;-3.80;99.90
6863;DHT22;3470;48.738;9.616;2022-12-18T18:31:17;-3.70;99.90
6863;DHT22;3470;48.738;9.616;2022-12-18T18:33:43;-3.70;99.90
6863;DHT22;3470;48.738;9.616;2022-12-18T18:36:10;-3.70;99.90
6863;DHT22;3470;48.738;9.616;2022-12-18T18:38:41;-3.60;99.90
6863;DHT22;3470;48.738;9.616;2022-12-18T18:41:07;-3.60;99.90
6863;DHT22;3470;48.738;9.616;2022-12-18T18:43:33;-3.60;99.90
6863;DHT22;3470;48.738;9.616;2022-12-18T18:46:00;-3.60;99.90
6863;DHT22;3470;48.738;9.616;2022-12-18T18:48:26;-3.60;99.90
6863;DHT22;3470;48.738;9.616;2022-12-18T18:51:05;-3.50;99.90
6863;DHT22;3470;48.738;9.616;2022-12-18T18:53:35;-3.50;99.90
6863;DHT22;3470;48.738;9.616;2022-12-18T18:56:02;-3.40;99.90
6863;DHT22;3470;48.738;9.616;2022-12-18T18:58:28;-3.40;99.90
6863;DHT22;3470;48.738;9.616;2022-12-18T19:00:59;-3.40;99.90
6863;DHT22;3470;48.738;9.616;2022-12-18T19:03:25;-3.40;99.90
6863;DHT22;3470;48.738;9.616;2022-12-18T19:05:55;-3.40;99.90
6863;DHT22;3470;48.738;9.616;2022-12-18T19:08:22;-3.30;99.90
6863;DHT22;3470;48.738;9.616;2022-12-18T19:10:52;-3.30;99.90
6863;DHT22;3470;48.738;9.616;2022-12-18T19:13:19;-3.20;99.90
6863;DHT22;3470;48.738;9.616;2022-12-18T19:15:46;-3.20;99.90
6863;DHT22;3470;48.738;9.616;2022-12-18T19:18:12;-3.20;99.90
6863;DHT22;3470;48.738;9.616;2022-12-18T19:20:38;-3.20;99.90
6863;DHT22;3470;48.738;9.616;2022-12-18T19:23:03;-3.20;99.90
6863;DHT22;3470;48.738;9.616;2022-12-18T19:25:29;-3.10;99.90
6863;DHT22;3470;48.738;9.616;2022-12-18T19:27:57;-3.20;99.90
6863;DHT22;3470;48.738;9.616;2022-12-18T19:30:22;-3.10;99.90
6863;DHT22;3470;48.738;9.616;2022-12-18T19:32:48;-3.20;99.90
6863;DHT22;3470;48.738;9.616;2022-12-18T19:35:13;-3.10;99.90
6863;DHT22;3470;48.738;9.616;2022-12-18T19:37:39;-3.10;99.90
6863;DHT22;3470;48.738;9.616;2022-12-18T19:40:06;-3.00;99.90
6863;DHT22;3470;48.738;9.616;2022-12-18T19:42:31;-3.10;99.90
6863;DHT22;3470;48.738;9.616;2022-12-18T19:44:57;-3.10;99.90
6863;DHT22;3470;48.738;9.616;2022-12-18T19:47:23;-3.10;99.90
6863;DHT22;3470;48.738;9.616;2022-12-18T19:49:48;-3.10;99.90
6863;DHT22;3470;48.738;9.616;2022-12-18T19:52:16;-3.10;99.90
6863;DHT22;3470;48.738;9.616;2022-12-18T19:54:42;-3.00;99.90
6863;DHT22;3470;48.738;9.616;2022-12-18T19:57:07;-3.00;99.90
6863;DHT22;3470;48.738;9.616;2022-12-18T19:59:36;-3.10;99.90
6863;DHT22;3470;48.738;9.616;2022-12-18T20:02:02;-3.10;99.90
6863;DHT22;3470;48.738;9.616;2022-12-18T20:04:27;-3.20;99.90
6863;DHT22;3470;48.738;9.616;2022-12-18T20:06:53;-3.20;99.90
6863;DHT22;3470;48.738;9.616;2022-12-18T20:09:19;-3.30;99.90
6863;DHT22;3470;48.738;9.616;2022-12-18T20:11:45;-3.30;99.90
6863;DHT22;3470;48.738;9.616;2022-12-18T20:14:13;-3.30;99.90
6863;DHT22;3470;48.738;9.616;2022-12-18T20:16:39;-3.30;99.90
6863;DHT22;3470;48.738;9.616;2022-12-18T20:19:05;-3.30;99.90
6863;DHT22;3470;48.738;9.616;2022-12-18T20:21:31;-3.30;99.90
6863;DHT22;3470;48.738;9.616;2022-12-18T20:23:57;-3.30;99.90
6863;DHT22;3470;48.738;9.616;2022-12-18T20:26:24;-3.30;99.90
6863;DHT22;3470;48.738;9.616;2022-12-18T20:28:50;-3.20;99.90
6863;DHT22;3470;48.738;9.616;2022-12-18T20:31:16;-3.10;99.90
6863;DHT22;3470;48.738;9.616;2022-12-18T20:33:42;-3.10;99.90
6863;DHT22;3470;48.738;9.616;2022-12-18T20:36:13;-3.10;99.90
6863;DHT22;3470;48.738;9.616;2022-12-18T20:38:40;-3.10;99.90
6863;DHT22;3470;48.738;9.616;2022-12-18T20:41:07;-3.10;99.90
6863;DHT22;3470;48.738;9.616;2022-12-18T20:43:34;-3.10;99.90
6863;DHT22;3470;48.738;9.616;2022-12-18T20:46:04;-3.00;99.90
6863;DHT22;3470;48.738;9.616;2022-12-18T20:48:31;-3.00;99.90
6863;DHT22;3470;48.738;9.616;2022-12-18T20:51:01;-3.00;99.90
6863;DHT22;3470;48.738;9.616;2022-12-18T20:53:28;-3.10;99.90
6863;DHT22;3470;48.738;9.616;2022-12-18T20:55:53;-3.00;99.90
6863;DHT22;3470;48.738;9.616;2022-12-18T20:58:19;-3.10;99.90
6863;DHT22;3470;48.738;9.616;2022-12-18T21:00:45;-3.00;99.90
6863;DHT22;3470;48.738;9.616;2022-12-18T21:03:13;-3.00;99.90
6863;DHT22;3470;48.738;9.616;2022-12-18T21:05:38;-3.00;99.90
6863;DHT22;3470;48.738;9.616;2022-12-18T21:08:04;-3.00;99.90
6863;DHT22;3470;48.738;9.616;2022-12-18T21:10:30;-2.90;99.90
6863;DHT22;3470;48.738;9.616;2022-12-18T21:12:55;-2.90;99.90
6863;DHT22;3470;48.738;9.616;2022-12-18T21:15:21;-2.80;99.90
6863;DHT22;3470;48.738;9.616;2022-12-18T21:17:47;-2.70;99.90
6863;DHT22;3470;48.738;9.616;2022-12-18T21:20:14;-2.70;99.90
6863;DHT22;3470;48.738;9.616;2022-12-18T21:22:39;-2.70;99.90
6863;DHT22;3470;48.738;9.616;2022-12-18T21:25:05;-2.60;99.90
6863;DHT22;3470;48.738;9.616;2022-12-18T21:27:31;-2.60;99.90
6863;DHT22;3470;48.738;9.616;2022-12-18T21:29:57;-2.50;99.90
6863;DHT22;3470;48.738;9.616;2022-12-18T21:32:22;-2.50;99.90
6863;DHT22;3470;48.738;9.616;2022-12-18T21:34:48;-2.50;99.90
6863;DHT22;3470;48.738;9.616;2022-12-18T21:37:15;-2.50;99.90
6863;DHT22;3470;48.738;9.616;2022-12-18T21:39:40;-2.50;99.90
6863;DHT22;3470;48.738;9.616;2022-12-18T21:42:06;-2.40;99.90
6863;DHT22;3470;48.738;9.616;2022-12-18T21:44:50;-2.30;99.90
6863;DHT22;3470;48.738;9.616;2022-12-18T21:47:16;-2.30;99.90
6863;DHT22;3470;48.738;9.616;2022-12-18T21:49:42;-2.20;99.90
6863;DHT22;3470;48.738;9.616;2022-12-18T21:52:07;-2.10;99.90
6863;DHT22;3470;48.738;9.616;2022-12-18T21:54:33;-2.00;99.90
6863;DHT22;3470;48.738;9.616;2022-12-18T21:57:01;-1.90;99.90
6863;DHT22;3470;48.738;9.616;2022-12-18T21:59:40;-1.90;99.90
6863;DHT22;3470;48.738;9.616;2022-12-18T22:02:18;-1.80;99.90
6863;DHT22;3470;48.738;9.616;2022-12-18T22:04:44;-1.80;99.90
6863;DHT22;3470;48.738;9.616;2022-12-18T22:07:11;-1.80;99.90
6863;DHT22;3470;48.738;9.616;2022-12-18T22:09:37;-1.80;99.90
6863;DHT22;3470;48.738;9.616;2022-12-18T22:12:03;-1.80;99.90
6863;DHT22;3470;48.738;9.616;2022-12-18T22:14:29;-1.80;99.90
6863;DHT22;3470;48.738;9.616;2022-12-18T22:16:55;-1.70;99.90
6863;DHT22;3470;48.738;9.616;2022-12-18T22:19:21;-1.70;99.90
6863;DHT22;3470;48.738;9.616;2022-12-18T22:21:49;-1.70;99.90
6863;DHT22;3470;48.738;9.616;2022-12-18T22:24:23;-1.60;99.90
6863;DHT22;3470;48.738;9.616;2022-12-18T22:26:50;-1.60;99.90
6863;DHT22;3470;48.738;9.616;2022-12-18T22:29:21;-1.70;99.90
6863;DHT22;3470;48.738;9.616;2022-12-18T22:32:13;-1.80;99.90
6863;DHT22;3470;48.738;9.616;2022-12-18T22:34:42;-1.90;99.90
6863;DHT22;3470;48.738;9.616;2022-12-18T22:37:10;-1.90;99.90
6863;DHT22;3470;48.738;9.616;2022-12-18T22:39:36;-1.90;99.90
6863;DHT22;3470;48.738;9.616;2022-12-18T22:42:04;-2.00;99.90
6863;DHT22;3470;48.738;9.616;2022-12-18T22:44:30;-2.00;99.90
6863;DHT22;3470;48.738;9.616;2022-12-18T22:46:55;-2.00;99.90
6863;DHT22;3470;48.738;9.616;2022-12-18T22:49:24;-2.00;99.90
6863;DHT22;3470;48.738;9.616;2022-12-18T22:51:51;-2.00;99.90
6863;DHT22;3470;48.738;9.616;2022-12-18T22:54:17;-2.00;99.90
6863;DHT22;3470;48.738;9.616;2022-12-18T22:56:43;-2.00;99.90
6863;DHT22;3470;48.738;9.616;2022-12-18T22:59:21;-1.90;99.90
6863;DHT22;3470;48.738;9.616;2022-12-18T23:01:47;-1.90;99.90
6863;DHT22;3470;48.738;9.616;2022-12-18T23:04:13;-1.90;99.90
6863;DHT22;3470;48.738;9.616;2022-12-18T23:06:40;-1.90;99.90
6863;DHT22;3470;48.738;9.616;2022-12-18T23:09:06;-1.80;99.90
6863;DHT22;3470;48.738;9.616;2022-12-18T23:11:32;-1.80;99.90
6863;DHT22;3470;48.738;9.616;2022-12-18T23:13:58;-1.80;99.90
6863;DHT22;3470;48.738;9.616;2022-12-18T23:16:23;-1.80;99.90
6863;DHT22;3470;48.738;9.616;2022-12-18T23:18:55;-1.70;99.90
6863;DHT22;3470;48.738;9.616;2022-12-18T23:21:22;-1.70;99.90
6863;DHT22;3470;48.738;9.616;2022-12-18T23:23:48;-1.70;99.90
6863;DHT22;3470;48.738;9.616;2022-12-18T23:26:22;-1.70;99.90
6863;DHT22;3470;48.738;9.616;2022-12-18T23:28:49;-1.60;99.90
6863;DHT22;3470;48.738;9.616;2022-12-18T23:31:22;-1.60;99.90
6863;DHT22;3470;48.738;9.616;2022-12-18T23:33:48;-1.60;99.90
6863;DHT22;3470;48.738;9.616;2022-12-18T23:36:15;-1.50;99.90
6863;DHT22;3470;48.738;9.616;2022-12-18T23:38:41;-1.50;99.90
6863;DHT22;3470;48.738;9.616;2022-12-18T23:41:13;-1.50;99.90
6863;DHT22;3470;48.738;9.616;2022-12-18T23:43:39;-1.50;99.90
6863;DHT22;3470;48.738;9.616;2022-12-18T23:46:28;-1.50;99.90
6863;DHT22;3470;48.738;9.616;2022-12-18T23:48:59;-1.40;99.90
6863;DHT22;3470;48.738;9.616;2022-12-18T23:51:25;-1.40;99.90
6863;DHT22;3470;48.738;9.616;2022-12-18T23:53:52;-1.40;99.90
6863;DHT22;3470;48.738;9.616;2022-12-18T23:56:19;-1.40;99.90
6863;DHT22;3470;48.738;9.616;2022-12-18T23:58:45;-1.40;99.90
